Repubbli Del Brasile — IBZB — position and weather

sailwx.info

Track history (hours):
 
Tides and Currents Weather Stations Pressure Air Temp Water Temp Dewpoint Dewpoint Depression Visibility Wind Speed Wind Dir Waves Ship Positions

Repubbli Del Brasile

Last reported at 2015-May-18 06:33 UTC. Time now 2015-May-22 20:36 UTC.
Position N 35°59' W 005°27'.

Length 209 m; draft 9.8 m.

Type: Ship (hazmat cat A). MMSI: 247310000.

Date/timePositionNaut miles runAvg speedWind from/ knotsBaromVisibWave heightAir tempDewpointWater temp
2015-May-18 06:33N 35°59' W 005°27'1414.3
2015-May-18 05:33N 36°03' W 005°10'11015.1
2015-May-17 22:15N 36°20' W 002°55'1116.2
2015-May-17 21:33N 36°21' W 002°41'1616.3
2015-May-17 20:34N 36°24' W 002°21'6816.0
2015-May-17 16:19N 36°41' W 000°60'1415.3
2015-May-17 15:25N 36°44' W 000°43'1315.1
2015-May-17 14:34N 36°48' W 000°27'1615.3
2015-May-17 13:31N 36°52' W 000°08'1415.0
2015-May-17 12:33N 36°56' E 000°10'1515.3
2015-May-17 11:33N 36°60' E 000°28'1515.3
2015-May-17 10:33N 37°04' E 000°46'1615.4
2015-May-17 09:32N 37°08' E 001°05'38214.7
2015-May-16 07:32N 38°48' E 008°52'1414.2
2015-May-16 06:33N 38°51' E 009°10'1514.6
2015-May-16 05:33N 38°56' E 009°28'1615.1
2015-May-16 04:32N 39°02' E 009°46'20315.2
2015-May-15 15:10N 40°19' E 013°49'915.1
2015-May-15 14:33N 40°23' E 014°01'1515.5
2015-May-15 13:33N 40°29' E 014°19'1615.7
2015-May-15 12:32N 40°35' E 014°39'  
2015-May-12 12:31N 40°34' E 014°33'1515.9
2015-May-12 11:34N 40°30' E 014°14'1615.6
2015-May-12 10:34N 40°34' E 013°54'1615.3
2015-May-12 09:31N 40°38' E 013°33'1715.2
2015-May-12 08:26N 40°43' E 013°12'13715.0
2015-May-11 23:20N 42°09' E 010°51'4515.5
2015-May-11 20:28N 42°40' E 010°07'1212.7
2015-May-11 19:33N 42°50' E 009°59'1515.5
2015-May-11 18:33N 43°05' E 010°02'1515.5
2015-May-11 17:33N 43°20' E 010°08'1312.9
2015-May-11 16:34N 43°32' E 010°15'3 3.3
2015-May-11 15:33N 43°34' E 010°18'0 0.0
2015-May-11 14:33N 43°34' E 010°18'0 0.0
2015-May-11 13:32N 43°34' E 010°18'0 0.0
2015-May-11 12:33N 43°34' E 010°18'0 0.0
2015-May-11 11:32N 43°34' E 010°18'0 0.0
2015-May-11 10:32N 43°34' E 010°18'0 0.0
2015-May-11 09:28N 43°34' E 010°18'0 0.0
2015-May-11 08:31N 43°34' E 010°18'0 0.0
2015-May-11 07:33N 43°34' E 010°18'0 0.0
2015-May-11 06:29N 43°34' E 010°18'1 1.0
2015-May-11 05:34N 43°33' E 010°18'4 3.8
2015-May-11 04:33N 43°30' E 010°16'0 0.0
2015-May-11 03:32N 43°30' E 010°16'0 0.0
2015-May-11 02:32N 43°30' E 010°16'0 0.0
2015-May-11 01:31N 43°30' E 010°16'0 0.0
2015-May-11 00:31N 43°30' E 010°16'0 0.0
2015-May-10 23:33N 43°30' E 010°16'0 0.0
2015-May-10 22:33N 43°30' E 010°16'0 0.0
2015-May-10 21:33N 43°30' E 010°16'0 0.0
2015-May-10 20:32N 43°30' E 010°16'0 0.0
2015-May-10 19:32N 43°30' E 010°16'0 0.0
2015-May-10 18:25N 43°30' E 010°16'0 0.0
2015-May-10 17:31N 43°30' E 010°16'0 0.0
2015-May-10 16:33N 43°30' E 010°16'0 0.0
2015-May-10 15:31N 43°30' E 010°16'0 0.0
2015-May-10 14:33N 43°30' E 010°16'0 0.0
2015-May-10 13:33N 43°30' E 010°16'0 0.0
2015-May-10 12:33N 43°30' E 010°16'0 0.0
2015-May-10 11:32N 43°30' E 010°16'0 0.0
2015-May-10 10:33N 43°30' E 010°16'0 0.0
2015-May-10 09:30N 43°30' E 010°16'0 0.0
2015-May-10 08:26N 43°30' E 010°16'0 0.0
2015-May-10 07:33N 43°30' E 010°16'0 0.0
2015-May-10 06:33N 43°30' E 010°16'0 0.0
2015-May-10 05:32N 43°30' E 010°16'0 0.0
2015-May-10 04:32N 43°30' E 010°16'0 0.0
2015-May-10 03:31N 43°30' E 010°16'0 0.0
2015-May-10 02:31N 43°30' E 010°16'0 0.0
2015-May-10 01:33N 43°30' E 010°16'0 0.0
2015-May-10 00:33N 43°30' E 010°16'0 0.0
2015-May-09 23:30N 43°30' E 010°16'0 0.0
2015-May-09 22:33N 43°30' E 010°16'5 5.4
2015-May-09 21:33N 43°29' E 010°08'1414.2
2015-May-09 20:33N 43°33' E 009°50'1515.2
2015-May-09 19:33N 43°42' E 009°33'1515.0
2015-May-09 18:33N 43°53' E 009°18'1414.4
2015-May-09 17:33N 44°06' E 009°09'1514.5
2015-May-09 16:33N 44°18' E 008°59'7 7.1
2015-May-09 15:33N 44°24' E 008°53'0 0.0
2015-May-09 14:32N 44°24' E 008°53'0 0.0
2015-May-09 13:32N 44°24' E 008°53'0 0.0
2015-May-09 12:31N 44°24' E 008°53'0 0.0
2015-May-09 11:28N 44°24' E 008°53'0 0.0
2015-May-09 10:24N 44°24' E 008°53'0 0.0
2015-May-09 09:24N 44°24' E 008°53'0 0.0
2015-May-09 08:30N 44°24' E 008°53'0 0.0
2015-May-09 07:29N 44°24' E 008°53'0 0.0
2015-May-09 06:29N 44°24' E 008°53'0 0.0
2015-May-09 05:28N 44°24' E 008°53'0 0.0
2015-May-09 04:28N 44°24' E 008°53'0 0.0
2015-May-09 03:30N 44°24' E 008°53'0 0.0
2015-May-09 02:33N 44°24' E 008°53'0 0.0
2015-May-09 01:33N 44°24' E 008°53'0 0.0
2015-May-09 00:32N 44°24' E 008°53'0 0.0
2015-May-08 23:32N 44°24' E 008°53'0 0.0
2015-May-08 22:22N 44°24' E 008°53'0 0.0
2015-May-08 21:25N 44°24' E 008°53'0 0.0
2015-May-08 20:30N 44°24' E 008°53'0 0.0
2015-May-08 19:33N 44°24' E 008°53'0 0.0
2015-May-08 18:33N 44°24' E 008°53'0 0.0
2015-May-08 17:28N 44°24' E 008°53'0 0.0
2015-May-08 16:33N 44°24' E 008°53'0 0.0
2015-May-08 15:32N 44°24' E 008°53'0 0.0
2015-May-08 14:31N 44°24' E 008°53'0 0.0
2015-May-08 13:31N 44°24' E 008°53'0 0.0
2015-May-08 12:32N 44°24' E 008°53'0 0.0
2015-May-08 11:31N 44°24' E 008°53'0 0.0
2015-May-08 10:31N 44°24' E 008°53'4 3.8
2015-May-08 09:33N 44°22' E 008°58'1312.6
2015-May-08 08:33N 44°12' E 008°47'  
Track history (hours):
 
Tides and Currents Weather Stations Pressure Air Temp Water Temp Dewpoint Dewpoint Depression Visibility Wind Speed Wind Dir Waves Ship Positions

Repubbli Del Brasile

Last reported at 2015-May-18 06:33 UTC. Time now 2015-May-22 20:36 UTC.
Position N 35°59' W 005°27'.

Length 209 m; draft 9.8 m.

Type: Ship (hazmat cat A). MMSI: 247310000.

Date/timePositionNaut miles runAvg speedWind from/ knotsBaromVisibWave heightAir tempDewpointWater temp
2015-May-18 06:33N 35°59' W 005°27'1414.3
2015-May-18 05:33N 36°03' W 005°10'11015.1
2015-May-17 22:15N 36°20' W 002°55'1116.2
2015-May-17 21:33N 36°21' W 002°41'1616.3
2015-May-17 20:34N 36°24' W 002°21'6816.0
2015-May-17 16:19N 36°41' W 000°60'1415.3
2015-May-17 15:25N 36°44' W 000°43'1315.1
2015-May-17 14:34N 36°48' W 000°27'1615.3
2015-May-17 13:31N 36°52' W 000°08'1415.0
2015-May-17 12:33N 36°56' E 000°10'1515.3
2015-May-17 11:33N 36°60' E 000°28'1515.3
2015-May-17 10:33N 37°04' E 000°46'1615.4
2015-May-17 09:32N 37°08' E 001°05'38214.7
2015-May-16 07:32N 38°48' E 008°52'1414.2
2015-May-16 06:33N 38°51' E 009°10'1514.6
2015-May-16 05:33N 38°56' E 009°28'1615.1
2015-May-16 04:32N 39°02' E 009°46'20315.2
2015-May-15 15:10N 40°19' E 013°49'915.1
2015-May-15 14:33N 40°23' E 014°01'1515.5
2015-May-15 13:33N 40°29' E 014°19'1615.7
2015-May-15 12:32N 40°35' E 014°39'  
2015-May-12 12:31N 40°34' E 014°33'1515.9
2015-May-12 11:34N 40°30' E 014°14'1615.6
2015-May-12 10:34N 40°34' E 013°54'1615.3
2015-May-12 09:31N 40°38' E 013°33'1715.2
2015-May-12 08:26N 40°43' E 013°12'13715.0
2015-May-11 23:20N 42°09' E 010°51'4515.5
2015-May-11 20:28N 42°40' E 010°07'1212.7
2015-May-11 19:33N 42°50' E 009°59'1515.5
2015-May-11 18:33N 43°05' E 010°02'1515.5
2015-May-11 17:33N 43°20' E 010°08'1312.9
2015-May-11 16:34N 43°32' E 010°15'3 3.3
2015-May-11 15:33N 43°34' E 010°18'0 0.0
2015-May-11 14:33N 43°34' E 010°18'0 0.0
2015-May-11 13:32N 43°34' E 010°18'0 0.0
2015-May-11 12:33N 43°34' E 010°18'0 0.0
2015-May-11 11:32N 43°34' E 010°18'0 0.0
2015-May-11 10:32N 43°34' E 010°18'0 0.0
2015-May-11 09:28N 43°34' E 010°18'0 0.0
2015-May-11 08:31N 43°34' E 010°18'0 0.0
2015-May-11 07:33N 43°34' E 010°18'0 0.0
2015-May-11 06:29N 43°34' E 010°18'1 1.0
2015-May-11 05:34N 43°33' E 010°18'4 3.8
2015-May-11 04:33N 43°30' E 010°16'0 0.0
2015-May-11 03:32N 43°30' E 010°16'0 0.0
2015-May-11 02:32N 43°30' E 010°16'0 0.0
2015-May-11 01:31N 43°30' E 010°16'0 0.0
2015-May-11 00:31N 43°30' E 010°16'0 0.0
2015-May-10 23:33N 43°30' E 010°16'0 0.0
2015-May-10 22:33N 43°30' E 010°16'0 0.0
2015-May-10 21:33N 43°30' E 010°16'0 0.0
2015-May-10 20:32N 43°30' E 010°16'0 0.0
2015-May-10 19:32N 43°30' E 010°16'0 0.0
2015-May-10 18:25N 43°30' E 010°16'0 0.0
2015-May-10 17:31N 43°30' E 010°16'0 0.0
2015-May-10 16:33N 43°30' E 010°16'0 0.0
2015-May-10 15:31N 43°30' E 010°16'0 0.0
2015-May-10 14:33N 43°30' E 010°16'0 0.0
2015-May-10 13:33N 43°30' E 010°16'0 0.0
2015-May-10 12:33N 43°30' E 010°16'0 0.0
2015-May-10 11:32N 43°30' E 010°16'0 0.0
2015-May-10 10:33N 43°30' E 010°16'0 0.0
2015-May-10 09:30N 43°30' E 010°16'0 0.0
2015-May-10 08:26N 43°30' E 010°16'0 0.0
2015-May-10 07:33N 43°30' E 010°16'0 0.0
2015-May-10 06:33N 43°30' E 010°16'0 0.0
2015-May-10 05:32N 43°30' E 010°16'0 0.0
2015-May-10 04:32N 43°30' E 010°16'0 0.0
2015-May-10 03:31N 43°30' E 010°16'0 0.0
2015-May-10 02:31N 43°30' E 010°16'0 0.0
2015-May-10 01:33N 43°30' E 010°16'0 0.0
2015-May-10 00:33N 43°30' E 010°16'0 0.0
2015-May-09 23:30N 43°30' E 010°16'0 0.0
2015-May-09 22:33N 43°30' E 010°16'5 5.4
2015-May-09 21:33N 43°29' E 010°08'1414.2
2015-May-09 20:33N 43°33' E 009°50'1515.2
2015-May-09 19:33N 43°42' E 009°33'1515.0
2015-May-09 18:33N 43°53' E 009°18'1414.4
2015-May-09 17:33N 44°06' E 009°09'1514.5
2015-May-09 16:33N 44°18' E 008°59'7 7.1
2015-May-09 15:33N 44°24' E 008°53'0 0.0
2015-May-09 14:32N 44°24' E 008°53'0 0.0
2015-May-09 13:32N 44°24' E 008°53'0 0.0
2015-May-09 12:31N 44°24' E 008°53'0 0.0
2015-May-09 11:28N 44°24' E 008°53'0 0.0
2015-May-09 10:24N 44°24' E 008°53'0 0.0
2015-May-09 09:24N 44°24' E 008°53'0 0.0
2015-May-09 08:30N 44°24' E 008°53'0 0.0
2015-May-09 07:29N 44°24' E 008°53'0 0.0
2015-May-09 06:29N 44°24' E 008°53'0 0.0
2015-May-09 05:28N 44°24' E 008°53'0 0.0
2015-May-09 04:28N 44°24' E 008°53'0 0.0
2015-May-09 03:30N 44°24' E 008°53'0 0.0
2015-May-09 02:33N 44°24' E 008°53'0 0.0
2015-May-09 01:33N 44°24' E 008°53'0 0.0
2015-May-09 00:32N 44°24' E 008°53'0 0.0
2015-May-08 23:32N 44°24' E 008°53'0 0.0
2015-May-08 22:22N 44°24' E 008°53'0 0.0
2015-May-08 21:25N 44°24' E 008°53'0 0.0
2015-May-08 20:30N 44°24' E 008°53'0 0.0
2015-May-08 19:33N 44°24' E 008°53'0 0.0
2015-May-08 18:33N 44°24' E 008°53'0 0.0
2015-May-08 17:28N 44°24' E 008°53'0 0.0
2015-May-08 16:33N 44°24' E 008°53'0 0.0
2015-May-08 15:32N 44°24' E 008°53'0 0.0
2015-May-08 14:31N 44°24' E 008°53'0 0.0
2015-May-08 13:31N 44°24' E 008°53'0 0.0
2015-May-08 12:32N 44°24' E 008°53'0 0.0
2015-May-08 11:31N 44°24' E 008°53'0 0.0
2015-May-08 10:31N 44°24' E 008°53'4 3.8
2015-May-08 09:33N 44°22' E 008°58'1312.6
2015-May-08 08:33N 44°12' E 008°47'  

Dump ship's entire track history